Troutdale, Oregon
Current Conditions -  °F | °C
As of 10:53 AM on Friday 21 Nov 2014 (Local Time) from KTTD Reporting Station
Light Rain Light Rain  
Wind Chill: 31°   Ceiling: 6000
Heat Index: 41°   Visibility: 5mi
Dew Point: 36°   Wind: 25mph
Humidity: 82%   Direction: 80°E
Pressure: 29.76"   Gusts: 32mph
Location:  45.54°N, 122.38°W
Report Text: KTTD 211853Z 08022G28KT 5SM -RA FEW048 OVC060 05/02 A2976 RMK AO2 PK WND 09029/1819 RAB06 SLP079 P0000 T00500022
Loading
Personal Weather Stations






























Interactive Weather Map New forecast layout! Learn more

10-Day Weather Forecast

Advertisements
Track Severe Weather on mobile